createdAt,value
2022-11-13T00:01:19.499Z,100.00
2022-11-13T00:04:40.548Z,100.00
2022-11-13T00:08:01.627Z,100.00
2022-11-13T00:11:22.646Z,100.00
2022-11-13T00:14:44.296Z,100.00
2022-11-13T00:18:06.941Z,100.00
2022-11-13T00:21:29.708Z,100.00
2022-11-13T00:24:50.750Z,100.00
2022-11-13T00:28:11.581Z,100.00
2022-11-13T00:31:32.579Z,100.00
2022-11-13T00:34:53.398Z,100.00
2022-11-13T00:38:14.134Z,100.00
2022-11-13T00:41:34.889Z,100.00
2022-11-13T00:44:55.900Z,100.00
2022-11-13T00:48:17.162Z,100.00
2022-11-13T00:51:38.846Z,100.00
2022-11-13T00:55:00.044Z,100.00
2022-11-13T00:58:21.514Z,100.00
2022-11-13T01:01:42.813Z,100.00
2022-11-13T01:05:04.565Z,100.00
2022-11-13T01:08:25.673Z,100.00
2022-11-13T01:11:46.697Z,100.00
2022-11-13T01:15:07.957Z,100.00
2022-11-13T01:18:29.008Z,100.00
2022-11-13T01:21:50.068Z,100.00
2022-11-13T01:25:11.225Z,100.00
2022-11-13T01:28:32.231Z,100.00
2022-11-13T01:31:53.432Z,100.00
2022-11-13T01:35:14.391Z,100.00
2022-11-13T01:38:37.073Z,100.00
2022-11-13T01:41:58.292Z,100.00
2022-11-13T01:45:56.678Z,100.00
2022-11-13T01:49:38.082Z,100.00
2022-11-13T01:52:59.026Z,100.00
2022-11-13T01:56:20.318Z,100.00
2022-11-13T01:59:47.724Z,100.00
2022-11-13T02:03:08.670Z,100.00
2022-11-13T02:06:37.944Z,100.00
2022-11-13T02:09:59.437Z,100.00
2022-11-13T02:13:21.614Z,100.00
2022-11-13T02:16:44.090Z,100.00
2022-11-13T02:20:06.966Z,100.00
2022-11-13T02:24:03.000Z,100.00
2022-11-13T02:27:30.696Z,100.00
2022-11-13T02:30:51.693Z,100.00
2022-11-13T02:34:12.527Z,100.00
2022-11-13T02:37:33.417Z,100.00
2022-11-13T02:40:54.521Z,100.00
2022-11-13T02:44:15.633Z,100.00
2022-11-13T02:47:36.752Z,100.00
2022-11-13T02:50:58.402Z,100.00
2022-11-13T02:54:19.691Z,100.00
2022-11-13T02:57:40.478Z,100.00
2022-11-13T03:01:03.596Z,100.00
2022-11-13T03:04:24.636Z,100.00
2022-11-13T03:07:45.511Z,100.00
2022-11-13T03:11:10.428Z,100.00
2022-11-13T03:14:31.430Z,100.00
2022-11-13T03:17:52.189Z,100.00
2022-11-13T03:21:14.805Z,100.00
2022-11-13T03:24:35.785Z,100.00
2022-11-13T03:27:56.725Z,100.00
2022-11-13T03:31:18.253Z,100.00
2022-11-13T03:34:39.319Z,100.00
2022-11-13T03:38:00.192Z,100.00
2022-11-13T03:41:23.320Z,100.00
2022-11-13T03:44:44.356Z,100.00
2022-11-13T03:48:05.631Z,100.00
2022-11-13T03:51:26.877Z,100.00
2022-11-13T03:54:47.946Z,100.00
2022-11-13T03:58:09.135Z,100.00
2022-11-13T04:01:30.111Z,100.00
2022-11-13T04:04:51.226Z,100.00
2022-11-13T04:08:12.131Z,100.00
2022-11-13T04:11:33.249Z,100.00
2022-11-13T04:14:54.182Z,100.00
2022-11-13T04:18:15.175Z,100.00
2022-11-13T04:21:35.940Z,100.00
2022-11-13T04:24:56.941Z,100.00
2022-11-13T04:28:17.731Z,100.00
2022-11-13T04:31:38.622Z,100.00
2022-11-13T04:34:59.832Z,100.00
2022-11-13T04:38:20.972Z,100.00
2022-11-13T04:42:00.597Z,100.00
2022-11-13T04:45:24.395Z,100.00
2022-11-13T04:48:45.613Z,100.00
2022-11-13T04:52:13.564Z,100.00
2022-11-13T04:55:34.331Z,100.00
2022-11-13T04:58:55.187Z,100.00
2022-11-13T05:02:16.423Z,100.00
2022-11-13T05:05:37.468Z,100.00
2022-11-13T05:08:58.129Z,100.00
2022-11-13T05:12:19.663Z,100.00
2022-11-13T05:15:41.296Z,100.00
2022-11-13T05:19:06.940Z,100.00
2022-11-13T05:22:28.589Z,100.00
2022-11-13T05:25:49.678Z,100.00
2022-11-13T05:29:10.598Z,100.00
2022-11-13T05:32:32.579Z,100.00
2022-11-13T05:35:53.503Z,100.00
2022-11-13T05:39:14.445Z,100.00
2022-11-13T05:42:35.356Z,100.00
2022-11-13T05:46:09.678Z,100.00
2022-11-13T05:49:30.630Z,100.00
2022-11-13T05:52:51.600Z,100.00
2022-11-13T05:56:22.082Z,100.00
2022-11-13T05:59:43.265Z,100.00
2022-11-13T06:03:05.510Z,100.00
2022-11-13T06:06:28.362Z,100.00
2022-11-13T06:09:49.136Z,100.00
2022-11-13T06:13:10.110Z,100.00
2022-11-13T06:16:35.627Z,100.00
2022-11-13T06:19:56.865Z,100.00
2022-11-13T06:23:17.992Z,100.00
2022-11-13T06:26:39.846Z,100.00
2022-11-13T06:30:00.953Z,100.00
2022-11-13T06:33:21.644Z,100.00
2022-11-13T06:36:42.602Z,100.00
2022-11-13T06:40:03.542Z,100.00
2022-11-13T06:43:24.624Z,100.00
2022-11-13T06:46:45.389Z,100.00
2022-11-13T06:50:07.097Z,100.00
2022-11-13T06:53:28.332Z,100.00
2022-11-13T06:56:49.459Z,100.00
2022-11-13T07:00:10.917Z,100.00
2022-11-13T07:03:32.021Z,100.00
2022-11-13T07:06:52.838Z,100.00
2022-11-13T07:10:14.191Z,100.00
2022-11-13T07:13:36.909Z,100.00
2022-11-13T07:17:09.201Z,100.00
2022-11-13T07:20:31.692Z,100.00
2022-11-13T07:23:52.502Z,100.00
2022-11-13T07:27:13.237Z,100.00
2022-11-13T07:30:34.221Z,100.00
2022-11-13T07:33:55.438Z,100.00
2022-11-13T07:37:16.240Z,100.00
2022-11-13T07:40:37.278Z,100.00
2022-11-13T07:43:58.320Z,100.00
2022-11-13T07:47:19.476Z,100.00
2022-11-13T07:50:40.346Z,100.00
2022-11-13T07:54:01.347Z,100.00
2022-11-13T07:57:27.244Z,100.00
2022-11-13T08:00:48.964Z,100.00
2022-11-13T08:04:10.216Z,100.00
2022-11-13T08:07:30.966Z,100.00
2022-11-13T08:10:51.646Z,100.00
2022-11-13T08:14:12.834Z,100.00
2022-11-13T08:17:33.499Z,100.00
2022-11-13T08:20:55.437Z,100.00
2022-11-13T08:24:16.323Z,100.00
2022-11-13T08:27:38.304Z,100.00
2022-11-13T08:30:59.452Z,100.00
2022-11-13T08:34:20.786Z,100.00
2022-11-13T08:37:41.646Z,100.00
2022-11-13T08:41:08.992Z,100.00
2022-11-13T08:44:31.100Z,100.00
2022-11-13T08:47:52.529Z,100.00
2022-11-13T08:51:13.722Z,100.00
2022-11-13T08:54:35.921Z,100.00
2022-11-13T08:58:00.264Z,100.00
2022-11-13T09:01:23.423Z,100.00
2022-11-13T09:04:44.596Z,100.00
2022-11-13T09:08:06.675Z,100.00
2022-11-13T09:11:30.383Z,100.00
2022-11-13T09:14:51.413Z,100.00
2022-11-13T09:18:12.588Z,100.00
2022-11-13T09:21:33.387Z,100.00
2022-11-13T09:24:54.916Z,100.00
2022-11-13T09:28:16.122Z,100.00
2022-11-13T09:31:39.398Z,100.00
2022-11-13T09:35:00.345Z,100.00
2022-11-13T09:38:20.993Z,100.00
2022-11-13T09:41:53.611Z,100.00
2022-11-13T09:45:16.050Z,100.00
2022-11-13T09:48:40.587Z,100.00
2022-11-13T09:52:14.292Z,100.00
2022-11-13T09:55:45.564Z,100.00
2022-11-13T09:59:25.006Z,100.00
2022-11-13T10:03:46.598Z,100.00
2022-11-13T10:07:13.173Z,100.00
2022-11-13T10:10:55.130Z,100.00
2022-11-13T10:14:24.930Z,100.00
2022-11-13T10:18:18.509Z,100.00
2022-11-13T10:21:54.944Z,100.00
2022-11-13T10:25:23.016Z,100.00
2022-11-13T10:28:50.697Z,100.00
2022-11-13T10:32:27.802Z,100.00
2022-11-13T10:36:24.591Z,90.87
2022-11-13T10:39:45.792Z,89.45
2022-11-13T10:43:15.417Z,85.20
2022-11-13T10:46:36.736Z,82.86
2022-11-13T10:50:09.825Z,79.94
2022-11-13T10:53:40.768Z,81.92
2022-11-13T10:57:05.110Z,83.42
2022-11-13T11:00:30.739Z,78.92
2022-11-13T11:03:52.539Z,75.08
2022-11-13T11:07:21.609Z,76.09
2022-11-13T11:11:02.944Z,74.03
2022-11-13T11:15:01.348Z,68.96
2022-11-13T11:18:31.450Z,69.84
2022-11-13T11:22:02.118Z,72.72
2022-11-13T11:25:48.256Z,73.11
2022-11-13T11:29:33.501Z,71.76
2022-11-13T11:33:10.739Z,70.40
2022-11-13T11:36:40.528Z,75.59
2022-11-13T11:40:07.992Z,72.96
2022-11-13T11:43:42.947Z,74.27
2022-11-13T11:47:04.945Z,73.34
2022-11-13T11:51:07.640Z,73.12
2022-11-13T11:54:47.768Z,73.14
2022-11-13T11:58:38.223Z,75.69
2022-11-13T12:02:39.357Z,75.10
2022-11-13T12:06:30.194Z,76.83
2022-11-13T12:09:56.840Z,75.36
2022-11-13T12:13:41.063Z,72.40
2022-11-13T12:17:29.555Z,74.53
2022-11-13T12:21:10.990Z,74.98
2022-11-13T12:24:46.002Z,74.70
2022-11-13T12:28:22.597Z,77.37
2022-11-13T12:31:58.469Z,81.79
2022-11-13T12:35:25.152Z,82.24
2022-11-13T12:39:12.083Z,82.21
2022-11-13T12:43:23.712Z,80.82
2022-11-13T12:46:45.489Z,82.12
2022-11-13T12:50:26.164Z,85.31
2022-11-13T12:53:53.659Z,82.12
2022-11-13T12:57:14.504Z,81.60
2022-11-13T13:00:37.823Z,82.29
2022-11-13T13:04:43.237Z,84.72
2022-11-13T13:08:31.800Z,84.84
2022-11-13T13:12:07.410Z,84.53
2022-11-13T13:15:38.843Z,85.58
2022-11-13T13:19:35.636Z,86.07
2022-11-13T13:22:58.748Z,88.00
2022-11-13T13:26:25.348Z,89.28
2022-11-13T13:29:48.514Z,91.52
2022-11-13T13:33:30.660Z,90.09
2022-11-13T13:37:03.699Z,89.26
2022-11-13T13:41:06.525Z,88.84
2022-11-13T13:44:43.432Z,90.38
2022-11-13T13:48:11.406Z,86.29
2022-11-13T13:51:40.863Z,87.36
2022-11-13T13:55:04.065Z,86.75
2022-11-13T13:58:29.988Z,84.76
2022-11-13T14:01:58.641Z,82.61
2022-11-13T14:05:30.765Z,83.82
2022-11-13T14:08:51.584Z,82.84
2022-11-13T14:12:22.276Z,82.55
2022-11-13T14:15:43.644Z,82.63
2022-11-13T14:19:05.668Z,82.17
2022-11-13T14:22:28.085Z,82.32
2022-11-13T14:25:49.689Z,84.29
2022-11-13T14:29:31.552Z,84.59
2022-11-13T14:32:56.284Z,84.03
2022-11-13T14:36:27.390Z,84.41
2022-11-13T14:39:50.103Z,85.54
2022-11-13T14:43:20.523Z,84.45
2022-11-13T14:46:47.548Z,86.12
2022-11-13T14:50:21.941Z,85.55
2022-11-13T14:53:43.036Z,86.84
2022-11-13T14:57:11.974Z,88.46
2022-11-13T15:00:36.187Z,90.08
2022-11-13T15:03:57.736Z,92.71
2022-11-13T15:07:31.227Z,93.08
2022-11-13T15:10:52.975Z,94.72
2022-11-13T15:14:16.956Z,97.47
2022-11-13T15:17:38.204Z,100.00
2022-11-13T15:21:00.415Z,100.00
2022-11-13T15:24:21.700Z,100.00
2022-11-13T15:27:43.588Z,100.00
2022-11-13T15:31:26.725Z,100.00
2022-11-13T15:34:48.249Z,100.00
2022-11-13T15:38:10.496Z,100.00
2022-11-13T15:41:34.132Z,100.00
2022-11-13T15:44:55.361Z,100.00
2022-11-13T15:48:16.650Z,100.00
2022-11-13T15:51:48.368Z,100.00
2022-11-13T15:55:43.447Z,100.00
2022-11-13T15:59:04.974Z,100.00
2022-11-13T16:02:27.334Z,100.00
2022-11-13T16:05:48.379Z,100.00
2022-11-13T16:09:14.110Z,100.00
2022-11-13T16:12:35.939Z,100.00
2022-11-13T16:15:59.286Z,100.00
2022-11-13T16:19:25.655Z,100.00
2022-11-13T16:22:47.138Z,100.00
2022-11-13T16:26:20.296Z,100.00
2022-11-13T16:29:42.271Z,100.00
2022-11-13T16:33:09.161Z,100.00
2022-11-13T16:36:31.466Z,100.00
2022-11-13T16:39:53.319Z,100.00
2022-11-13T16:43:14.495Z,100.00
2022-11-13T16:46:38.959Z,100.00
2022-11-13T16:50:01.172Z,100.00
2022-11-13T16:53:22.256Z,100.00
2022-11-13T16:56:45.032Z,100.00
2022-11-13T17:00:08.504Z,100.00
2022-11-13T17:03:30.018Z,100.00
2022-11-13T17:06:56.875Z,100.00
2022-11-13T17:10:36.083Z,100.00
2022-11-13T17:14:01.812Z,100.00
2022-11-13T17:17:23.279Z,100.00
2022-11-13T17:20:45.168Z,100.00
2022-11-13T17:24:06.707Z,100.00
2022-11-13T17:27:27.678Z,100.00
2022-11-13T17:30:51.138Z,100.00
2022-11-13T17:34:15.542Z,100.00
2022-11-13T17:37:37.961Z,100.00
2022-11-13T17:41:10.858Z,100.00
2022-11-13T17:44:31.949Z,100.00
2022-11-13T17:47:53.076Z,100.00
2022-11-13T17:51:15.683Z,100.00
2022-11-13T17:54:36.937Z,100.00
2022-11-13T17:58:02.150Z,100.00
2022-11-13T18:01:23.251Z,100.00
2022-11-13T18:04:44.996Z,100.00
2022-11-13T18:08:07.741Z,100.00
2022-11-13T18:11:30.241Z,100.00
2022-11-13T18:14:54.194Z,100.00
2022-11-13T18:18:14.970Z,100.00
2022-11-13T18:21:36.914Z,100.00
2022-11-13T18:24:58.285Z,100.00
2022-11-13T18:28:19.509Z,100.00
2022-11-13T18:31:41.160Z,100.00
2022-11-13T18:35:02.483Z,100.00
2022-11-13T18:38:23.881Z,100.00
2022-11-13T18:41:44.969Z,100.00
2022-11-13T18:45:06.861Z,100.00
2022-11-13T18:50:12.460Z,100.00
2022-11-13T18:53:34.044Z,100.00
2022-11-13T18:56:55.639Z,100.00
2022-11-13T19:00:20.469Z,100.00
2022-11-13T19:04:01.348Z,100.00
2022-11-13T19:07:23.632Z,100.00
2022-11-13T19:10:45.384Z,100.00
2022-11-13T19:14:07.840Z,100.00
2022-11-13T19:17:29.540Z,100.00
2022-11-13T19:20:50.918Z,100.00
2022-11-13T19:24:14.649Z,100.00
2022-11-13T19:27:36.285Z,100.00
2022-11-13T19:30:58.253Z,100.00
2022-11-13T19:34:19.472Z,100.00
2022-11-13T19:37:41.404Z,100.00
2022-11-13T19:41:03.424Z,100.00
2022-11-13T19:44:24.988Z,100.00
2022-11-13T19:47:49.659Z,100.00
2022-11-13T19:51:19.304Z,100.00
2022-11-13T19:54:41.989Z,100.00
2022-11-13T19:58:03.413Z,100.00
2022-11-13T20:01:26.786Z,100.00
2022-11-13T20:04:48.177Z,100.00
2022-11-13T20:08:11.553Z,100.00
2022-11-13T20:11:33.985Z,100.00
2022-11-13T20:14:54.980Z,100.00
2022-11-13T20:18:16.107Z,100.00
2022-11-13T20:21:37.603Z,100.00
2022-11-13T20:24:58.693Z,100.00
2022-11-13T20:28:19.994Z,100.00
2022-11-13T20:31:41.197Z,100.00
2022-11-13T20:35:02.659Z,100.00
2022-11-13T20:38:24.344Z,100.00
2022-11-13T20:41:45.547Z,100.00
2022-11-13T20:45:07.178Z,100.00
2022-11-13T20:48:29.003Z,100.00
2022-11-13T20:51:54.641Z,100.00
2022-11-13T20:55:18.504Z,100.00
2022-11-13T20:58:43.394Z,100.00
2022-11-13T21:02:08.983Z,100.00
2022-11-13T21:05:30.434Z,100.00
2022-11-13T21:08:56.534Z,100.00
2022-11-13T21:12:17.438Z,100.00
2022-11-13T21:15:38.914Z,100.00
2022-11-13T21:19:00.768Z,100.00
2022-11-13T21:22:22.008Z,100.00
2022-11-13T21:25:43.591Z,100.00
2022-11-13T21:29:04.732Z,100.00
2022-11-13T21:32:26.228Z,100.00
2022-11-13T21:35:47.362Z,100.00
2022-11-13T21:39:08.535Z,100.00
2022-11-13T21:42:29.784Z,100.00
2022-11-13T21:45:50.633Z,100.00
2022-11-13T21:49:13.345Z,100.00
2022-11-13T21:52:34.055Z,100.00
2022-11-13T21:55:54.767Z,100.00
2022-11-13T21:59:15.978Z,100.00
2022-11-13T22:02:37.458Z,100.00
2022-11-13T22:06:17.323Z,100.00
2022-11-13T22:09:38.298Z,100.00
2022-11-13T22:13:01.493Z,100.00
2022-11-13T22:16:23.312Z,100.00
2022-11-13T22:19:45.063Z,100.00
2022-11-13T22:23:06.254Z,100.00
2022-11-13T22:26:28.693Z,100.00
2022-11-13T22:29:50.622Z,100.00
2022-11-13T22:33:11.351Z,100.00
2022-11-13T22:36:34.558Z,100.00
2022-11-13T22:39:55.510Z,100.00
2022-11-13T22:43:16.679Z,100.00
2022-11-13T22:46:37.859Z,100.00
2022-11-13T22:50:00.617Z,100.00
2022-11-13T22:53:21.701Z,100.00
2022-11-13T22:56:42.858Z,100.00
2022-11-13T23:00:09.307Z,100.00
2022-11-13T23:03:30.573Z,100.00
2022-11-13T23:06:51.804Z,100.00
2022-11-13T23:10:13.462Z,100.00
2022-11-13T23:13:34.400Z,100.00
2022-11-13T23:16:55.124Z,100.00
2022-11-13T23:20:16.235Z,100.00
2022-11-13T23:23:37.808Z,100.00
2022-11-13T23:26:58.607Z,100.00
2022-11-13T23:30:19.689Z,100.00
2022-11-13T23:33:41.098Z,100.00
2022-11-13T23:37:02.047Z,100.00
2022-11-13T23:40:23.171Z,100.00
2022-11-13T23:47:25.073Z,100.00
2022-11-13T23:50:46.680Z,100.00
2022-11-13T23:54:07.671Z,100.00
2022-11-13T23:57:28.801Z,100.00
